Time;durP1;ratioP1;P1;durP2;ratioP2;P2;SDS_P1;SDS_P2;PMS_P1;PMS_P2;Temp;Humidity;BMP_temperature;BMP_pressure;BME280_temperature;BME280_humidity;BME280_pressure;Samples;Min_cycle;Max_cycle;Signal;HPM_P1;HPM_P2
2022/12/27 00:01:17;;;;;;;6.67;1.70;;;4.00;99.90;;;;;;4171330;28;20492;-77
2022/12/27 00:03:19;;;;;;;9.43;1.43;;;4.00;99.90;;;;;;4169419;28;20507;-79
2022/12/27 00:05:21;;;;;;;14.37;1.23;;;3.90;99.90;;;;;;4179461;28;20444;-79
2022/12/27 00:07:23;;;;;;;10.20;1.40;;;3.90;99.90;;;;;;4176334;28;20551;-78
2022/12/27 00:09:26;;;;;;;11.90;1.47;;;3.90;99.90;;;;;;4161740;28;20450;-78
2022/12/27 00:11:29;;;;;;;12.30;1.60;;;3.90;99.90;;;;;;4174971;28;20935;-77
2022/12/27 00:13:31;;;;;;;7.73;1.50;;;3.90;99.90;;;;;;4176601;28;20823;-78
2022/12/27 00:15:34;;;;;;;8.20;1.30;;;3.90;99.90;;;;;;4167299;28;20481;-78
2022/12/27 00:17:36;;;;;;;10.63;2.43;;;3.90;99.90;;;;;;4157492;28;20469;-78
2022/12/27 00:19:38;;;;;;;9.03;1.60;;;3.90;99.90;;;;;;4157308;28;20451;-79
2022/12/27 00:21:40;;;;;;;7.20;1.33;;;3.80;99.90;;;;;;4180686;28;20875;-79
2022/12/27 00:23:45;;;;;;;14.73;2.13;;;3.80;99.90;;;;;;4176422;28;20452;-78
2022/12/27 00:25:48;;;;;;;14.77;1.80;;;3.80;99.90;;;;;;4177803;28;20441;-78
2022/12/27 00:27:50;;;;;;;7.37;1.10;;;3.80;99.90;;;;;;4172066;28;20468;-79
2022/12/27 00:29:52;;;;;;;15.57;1.60;;;3.80;99.90;;;;;;4183451;28;20453;-79
2022/12/27 00:31:54;;;;;;;10.77;1.60;;;3.80;99.90;;;;;;4158377;28;20496;-78
2022/12/27 00:33:58;;;;;;;9.77;1.53;;;3.80;99.90;;;;;;4166707;28;20503;-78
2022/12/27 00:36:01;;;;;;;12.07;1.63;;;3.80;99.90;;;;;;4170521;28;20539;-78
2022/12/27 00:38:06;;;;;;;9.77;1.40;;;3.80;99.90;;;;;;4170823;28;20536;-77
2022/12/27 00:40:10;;;;;;;6.83;1.23;;;3.90;99.90;;;;;;4156721;28;20600;-78
2022/12/27 00:42:13;;;;;;;12.10;1.70;;;3.80;99.90;;;;;;4162000;28;20450;-77
2022/12/27 00:44:15;;;;;;;9.33;1.43;;;3.80;99.90;;;;;;4177613;28;20489;-78
2022/12/27 00:46:17;;;;;;;5.07;1.13;;;3.80;99.90;;;;;;4158502;28;20461;-78
2022/12/27 00:48:19;;;;;;;11.13;1.43;;;3.70;99.90;;;;;;4177979;28;20497;-77
2022/12/27 00:50:21;;;;;;;9.93;1.37;;;3.70;99.90;;;;;;4177305;28;20481;-78
2022/12/27 00:52:23;;;;;;;8.13;1.13;;;3.70;99.90;;;;;;4154937;28;20477;-78
2022/12/27 00:54:25;;;;;;;9.37;0.90;;;3.70;99.90;;;;;;4162199;28;20451;-78
2022/12/27 00:56:29;;;;;;;11.23;1.40;;;3.70;99.90;;;;;;4173707;28;20486;-78
2022/12/27 00:58:32;;;;;;;8.90;1.30;;;3.70;99.90;;;;;;4174331;28;20504;-78
2022/12/27 01:00:34;;;;;;;7.00;1.20;;;3.70;99.90;;;;;;4175031;28;20536;-77
2022/12/27 01:02:36;;;;;;;8.33;1.43;;;3.70;99.90;;;;;;4168512;28;20457;-78
2022/12/27 01:04:38;;;;;;;6.63;1.30;;;3.80;99.90;;;;;;4178442;28;20491;-79
2022/12/27 01:06:42;;;;;;;9.10;1.67;;;3.70;99.90;;;;;;4157116;28;20457;-78
2022/12/27 01:08:45;;;;;;;9.50;1.90;;;3.70;99.90;;;;;;4174463;28;20477;-78
2022/12/27 01:10:46;;;;;;;13.43;2.60;;;3.70;99.90;;;;;;4169525;28;20489;-76
2022/12/27 01:12:48;;;;;;;6.17;1.40;;;3.70;99.90;;;;;;4175657;28;20456;-77
2022/12/27 01:14:52;;;;;;;9.97;1.73;;;3.70;99.90;;;;;;4151206;28;20663;-78
2022/12/27 01:16:54;;;;;;;8.73;1.73;;;3.70;99.90;;;;;;4170830;28;20485;-76
2022/12/27 01:18:56;;;;;;;4.53;2.67;;;3.70;99.90;;;;;;4174720;28;20565;-78
2022/12/27 01:20:57;;;;;;;9.37;2.03;;;3.70;99.90;;;;;;4172395;28;20537;-78
2022/12/27 01:22:59;;;;;;;6.90;1.80;;;3.70;99.90;;;;;;4177134;28;20465;-77
2022/12/27 01:25:01;;;;;;;3.90;1.60;;;3.70;99.90;;;;;;4173447;28;20481;-79
2022/12/27 01:27:03;;;;;;;4.77;2.67;;;3.60;99.90;;;;;;4172265;28;20489;-78
2022/12/27 01:29:05;;;;;;;6.57;2.17;;;3.60;99.90;;;;;;4173266;28;20503;-77
2022/12/27 01:31:10;;;;;;;5.03;1.57;;;3.50;99.90;;;;;;4175916;28;20987;-77
2022/12/27 01:33:12;;;;;;;5.83;1.67;;;3.50;99.90;;;;;;4176946;28;20540;-78
2022/12/27 01:35:14;;;;;;;10.23;2.10;;;3.50;99.90;;;;;;4172707;28;20549;-77
2022/12/27 01:37:15;;;;;;;5.47;1.97;;;3.40;99.90;;;;;;4168658;28;20492;-77
2022/12/27 01:39:17;;;;;;;7.97;2.03;;;3.40;99.90;;;;;;4170878;28;20544;-77
2022/12/27 01:43:41;;;;;;;9.20;2.20;;;3.30;99.90;;;;;;4174332;28;20453;-77
2022/12/27 01:45:45;;;;;;;8.37;2.40;;;3.20;99.90;;;;;;4176131;28;20504;-77
2022/12/27 01:47:54;;;;;;;9.77;2.37;;;3.20;99.90;;;;;;4173669;28;20465;-78
2022/12/27 01:50:06;;;;;;;6.67;2.57;;;3.20;99.90;;;;;;4167171;28;20515;-78
2022/12/27 01:52:10;;;;;;;6.50;2.63;;;3.10;99.90;;;;;;4178713;28;20497;-77
2022/12/27 01:54:12;;;;;;;6.83;2.50;;;3.10;99.90;;;;;;4174050;28;20494;-77
2022/12/27 01:56:19;;;;;;;10.80;3.03;;;3.10;99.90;;;;;;4173044;28;20579;-77
2022/12/27 01:58:27;;;;;;;9.03;3.37;;;3.00;99.90;;;;;;4167563;28;20967;-77
2022/12/27 02:00:32;;;;;;;11.00;3.03;;;3.00;99.90;;;;;;4172180;28;20479;-77
2022/12/27 02:02:34;;;;;;;11.83;3.03;;;2.90;99.90;;;;;;4173069;28;21189;-77
2022/12/27 02:04:37;;;;;;;9.37;2.60;;;2.90;99.90;;;;;;4175952;28;20486;-77
2022/12/27 02:06:40;;;;;;;8.37;2.60;;;2.90;99.90;;;;;;4176111;28;20952;-78
2022/12/27 02:08:49;;;;;;;6.83;2.83;;;2.90;99.90;;;;;;4175300;28;20515;-77
2022/12/27 02:10:52;;;;;;;12.00;2.53;;;2.80;99.90;;;;;;4168228;28;20867;-78
2022/12/27 02:12:54;;;;;;;10.20;2.63;;;2.80;99.90;;;;;;4172643;28;20445;-78
2022/12/27 02:14:56;;;;;;;7.10;2.33;;;2.80;99.90;;;;;;4175302;28;20461;-77
2022/12/27 02:17:00;;;;;;;5.87;2.33;;;2.70;99.90;;;;;;4169790;28;20465;-78
2022/12/27 02:19:02;;;;;;;7.73;2.50;;;2.70;99.90;;;;;;4172862;28;20480;-77
2022/12/27 02:21:36;;;;;;;9.30;2.40;;;2.70;99.90;;;;;;4169422;28;20501;-77
2022/12/27 02:24:09;;;;;;;10.30;2.80;;;2.70;99.90;;;;;;4173367;28;20828;-77
2022/12/27 02:26:41;;;;;;;6.40;3.20;;;2.70;99.90;;;;;;4136899;28;20468;-79
2022/12/27 02:29:09;;;;;;;7.07;3.50;;;2.60;99.90;;;;;;4170584;28;22147;-78
2022/12/27 02:31:16;;;;;;;10.43;3.77;;;2.60;99.90;;;;;;4169152;28;20454;-77
2022/12/27 02:33:25;;;;;;;20.77;4.50;;;2.60;99.90;;;;;;4169141;28;20644;-77
2022/12/27 02:35:33;;;;;;;17.00;3.77;;;2.50;99.90;;;;;;4176423;28;20543;-77
2022/12/27 02:37:41;;;;;;;11.30;3.47;;;2.50;99.90;;;;;;4170551;28;20503;-78
2022/12/27 02:39:47;;;;;;;10.90;3.53;;;2.50;99.90;;;;;;4171661;28;20900;-78
2022/12/27 02:54:08;;;;;;;9.53;3.43;;;2.40;99.90;;;;;;4181999;28;21072;-77
2022/12/27 02:58:59;;;;;;;7.77;3.00;;;2.30;99.90;;;;;;4171021;28;20492;-77
2022/12/27 03:03:39;;;;;;;7.00;3.20;;;2.20;99.90;;;;;;4174998;28;20453;-77
2022/12/27 03:06:38;;;;;;;8.90;3.47;;;2.20;99.90;;;;;;4155232;28;21132;-77
2022/12/27 03:08:23;;;;;;;11.37;3.73;;;2.20;99.90;;;;;;4166360;28;20488;-77
2022/12/27 03:18:03;;;;;;;9.57;3.73;;;2.10;99.90;;;;;;4177539;28;20484;-77
2022/12/27 03:27:16;;;;;;;14.37;3.63;;;2.00;99.90;;;;;;4171133;28;20441;-77
2022/12/27 03:38:51;;;;;;;9.20;2.30;;;2.00;99.90;;;;;;4165475;28;20470;-77
2022/12/27 03:43:19;;;;;;;7.63;2.50;;;2.00;99.90;;;;;;4173430;28;20472;-76
2022/12/27 03:46:32;;;;;;;6.10;2.10;;;2.00;99.90;;;;;;4154628;28;20497;-77
2022/12/27 03:47:48;;;;;;;6.40;2.00;;;2.00;99.90;;;;;;4150534;28;20493;-78
2022/12/27 03:49:59;;;;;;;7.63;2.10;;;2.00;99.90;;;;;;4174884;28;20462;-77
2022/12/27 03:52:07;;;;;;;4.83;1.80;;;1.90;99.90;;;;;;4166653;28;20503;-77
2022/12/27 03:54:14;;;;;;;5.03;2.30;;;1.90;99.90;;;;;;4165304;28;20503;-77
2022/12/27 03:56:17;;;;;;;5.70;2.00;;;1.90;99.90;;;;;;4167430;28;20993;-77
2022/12/27 03:58:19;;;;;;;8.50;2.03;;;1.90;99.90;;;;;;4152171;28;20547;-78
2022/12/27 04:00:21;;;;;;;10.33;2.27;;;1.90;99.90;;;;;;4154905;28;20494;-77
2022/12/27 04:02:23;;;;;;;3.43;1.80;;;1.90;99.90;;;;;;4177868;28;20462;-77
2022/12/27 04:04:25;;;;;;;3.17;1.70;;;1.90;99.90;;;;;;4173195;28;20457;-77
2022/12/27 04:06:28;;;;;;;3.47;1.77;;;1.90;99.90;;;;;;4176932;28;20990;-77
2022/12/27 04:36:27;;;;;;;4.53;1.60;;;1.80;99.90;;;;;;4171798;28;20467;-77
2022/12/27 04:38:31;;;;;;;3.70;1.33;;;1.80;99.90;;;;;;4173836;28;20504;-77
2022/12/27 04:56:55;;;;;;;8.27;1.70;;;1.80;99.90;;;;;;4171001;28;20642;-77
2022/12/27 05:03:37;;;;;;;6.10;1.30;;;1.80;99.90;;;;;;4176730;28;20452;-77
2022/12/27 05:05:43;;;;;;;11.23;1.50;;;1.80;99.90;;;;;;4160204;28;20492;-76
2022/12/27 05:14:49;;;;;;;4.57;1.50;;;1.90;99.90;;;;;;4172019;28;20861;-77
2022/12/27 05:16:52;;;;;;;4.80;1.40;;;1.90;99.90;;;;;;4174143;28;20499;-77
2022/12/27 05:18:54;;;;;;;5.00;1.50;;;1.90;99.90;;;;;;4171194;28;20481;-77
2022/12/27 05:21:02;;;;;;;8.30;1.50;;;1.90;99.90;;;;;;4174618;28;20828;-78
2022/12/27 05:25:37;;;;;;;6.13;1.40;;;2.00;99.90;;;;;;4167482;28;20849;-76
2022/12/27 05:27:39;;;;;;;4.97;1.57;;;2.00;99.90;;;;;;4167495;28;20449;-77
2022/12/27 05:29:41;;;;;;;6.43;1.40;;;2.00;99.90;;;;;;4173550;28;20900;-76
2022/12/27 05:31:42;;;;;;;6.67;1.53;;;2.00;99.90;;;;;;4175318;28;21424;-77
2022/12/27 05:33:43;;;;;;;12.13;1.50;;;1.90;99.90;;;;;;4168686;28;20456;-76
2022/12/27 05:35:46;;;;;;;5.83;1.53;;;2.00;99.90;;;;;;4166786;28;20480;-76
2022/12/27 05:37:47;;;;;;;6.77;1.87;;;2.10;99.90;;;;;;4172892;28;20234;-77
2022/12/27 05:39:49;;;;;;;10.73;1.80;;;2.10;99.90;;;;;;4167416;28;20537;-77
2022/12/27 05:41:53;;;;;;;8.17;1.67;;;2.10;99.90;;;;;;4175343;28;20457;-76
2022/12/27 05:43:55;;;;;;;5.33;1.20;;;2.10;99.90;;;;;;4175629;28;20494;-77
2022/12/27 05:46:03;;;;;;;5.67;1.60;;;2.10;99.90;;;;;;4166990;28;20484;-78
2022/12/27 05:48:05;;;;;;;4.57;1.40;;;2.00;99.90;;;;;;4168293;28;20465;-77
2022/12/27 05:50:08;;;;;;;4.20;1.40;;;2.00;99.90;;;;;;4175972;28;20553;-77
2022/12/27 05:52:12;;;;;;;4.17;1.20;;;2.00;99.90;;;;;;4168460;28;20541;-77
2022/12/27 05:54:14;;;;;;;9.60;1.90;;;2.00;99.90;;;;;;4175774;28;20449;-77
2022/12/27 05:56:18;;;;;;;6.13;1.60;;;1.90;99.90;;;;;;4171379;28;20492;-76
2022/12/27 05:58:22;;;;;;;6.20;1.40;;;2.00;99.90;;;;;;4173242;28;20485;-76
2022/12/27 06:00:24;;;;;;;9.50;1.57;;;1.90;99.90;;;;;;4169203;28;20944;-76
2022/12/27 06:02:26;;;;;;;6.73;1.77;;;2.00;99.90;;;;;;4170872;28;20475;-76
2022/12/27 06:04:28;;;;;;;6.83;1.60;;;2.40;99.90;;;;;;4170726;28;20446;-76
2022/12/27 06:06:30;;;;;;;3.23;1.43;;;2.00;99.90;;;;;;4170244;28;20450;-76
2022/12/27 06:08:32;;;;;;;6.87;2.00;;;2.00;99.90;;;;;;4170986;28;20990;-76
2022/12/27 06:10:34;;;;;;;7.50;1.60;;;2.00;99.90;;;;;;4167357;28;20457;-76
2022/12/27 06:12:37;;;;;;;5.57;1.60;;;2.00;99.90;;;;;;4170212;28;20875;-76
2022/12/27 06:14:40;;;;;;;4.93;1.70;;;2.00;99.90;;;;;;4155334;28;20461;-76
2022/12/27 06:16:43;;;;;;;9.13;1.80;;;2.00;99.90;;;;;;4167691;28;21057;-76
2022/12/27 06:18:45;;;;;;;8.30;1.70;;;2.00;99.90;;;;;;4167887;28;20566;-76
2022/12/27 06:20:47;;;;;;;11.13;1.90;;;2.00;99.90;;;;;;4171419;28;20903;-76
2022/12/27 06:22:49;;;;;;;6.33;1.60;;;2.00;99.90;;;;;;4170744;28;21197;-77
2022/12/27 06:24:51;;;;;;;8.23;2.03;;;2.00;99.90;;;;;;4153932;28;20454;-76
2022/12/27 06:26:53;;;;;;;8.83;2.53;;;2.00;99.90;;;;;;4173689;28;20952;-76
2022/12/27 06:28:56;;;;;;;4.77;1.60;;;2.00;99.90;;;;;;4169513;28;21015;-76
2022/12/27 06:31:00;;;;;;;8.07;1.60;;;2.00;99.90;;;;;;4174122;28;20453;-76
2022/12/27 06:33:02;;;;;;;7.30;1.90;;;2.00;99.90;;;;;;4170133;28;20881;-77
2022/12/27 06:35:05;;;;;;;4.40;1.43;;;2.00;99.90;;;;;;4168275;28;20449;-76
2022/12/27 06:37:07;;;;;;;8.90;1.73;;;2.00;99.90;;;;;;4172676;28;20544;-76
2022/12/27 06:39:09;;;;;;;9.43;1.93;;;2.00;99.90;;;;;;4175010;28;20476;-76
2022/12/27 06:41:17;;;;;;;6.57;2.40;;;2.00;99.90;;;;;;4176623;28;20898;-76
2022/12/27 06:43:19;;;;;;;3.60;1.70;;;2.30;99.90;;;;;;4169725;28;20878;-79
2022/12/27 06:45:21;;;;;;;8.17;1.80;;;2.00;99.90;;;;;;4153626;28;20481;-81
2022/12/27 06:47:24;;;;;;;3.30;1.70;;;2.10;99.90;;;;;;4172119;28;20448;-78
2022/12/27 06:49:26;;;;;;;3.77;1.80;;;2.10;99.90;;;;;;4158504;28;20937;-80
2022/12/27 06:51:28;;;;;;;7.27;2.87;;;2.10;99.90;;;;;;4172766;28;20471;-77
2022/12/27 06:53:30;;;;;;;8.20;2.27;;;2.00;99.90;;;;;;4170903;28;20450;-77
2022/12/27 06:55:32;;;;;;;10.53;3.10;;;2.10;99.90;;;;;;4169628;28;20484;-77
2022/12/27 06:57:34;;;;;;;7.23;2.23;;;2.00;99.90;;;;;;4170681;28;20568;-78
2022/12/27 06:59:38;;;;;;;7.90;2.20;;;2.00;99.90;;;;;;4170798;28;20445;-78
2022/12/27 07:01:41;;;;;;;10.03;2.43;;;2.00;99.90;;;;;;4156422;28;20542;-78
2022/12/27 07:03:48;;;;;;;8.97;1.73;;;2.00;99.90;;;;;;4171596;28;20457;-78
2022/12/27 07:05:52;;;;;;;7.60;1.80;;;2.10;99.90;;;;;;4167515;28;20458;-78
2022/12/27 07:07:54;;;;;;;6.50;2.00;;;2.10;99.90;;;;;;4172465;28;20473;-78
2022/12/27 07:09:56;;;;;;;9.83;2.00;;;2.00;99.90;;;;;;4170523;28;20475;-78
2022/12/27 07:11:58;;;;;;;7.20;1.93;;;2.00;99.90;;;;;;4168634;28;20484;-79
2022/12/27 07:14:00;;;;;;;2.93;1.70;;;2.00;99.90;;;;;;4157340;28;20461;-79
2022/12/27 07:16:04;;;;;;;2.97;1.63;;;2.00;99.90;;;;;;4172162;28;20805;-79
2022/12/27 07:18:06;;;;;;;6.37;1.97;;;2.00;99.90;;;;;;4150224;28;21042;-79
2022/12/27 07:20:10;;;;;;;8.87;2.10;;;2.00;99.90;;;;;;4173669;28;20963;-79
2022/12/27 07:22:12;;;;;;;4.03;1.73;;;2.00;99.90;;;;;;4152804;28;20529;-79
2022/12/27 07:24:14;;;;;;;8.20;2.30;;;2.00;99.90;;;;;;4171474;28;20524;-78
2022/12/27 07:26:18;;;;;;;8.97;2.37;;;2.00;99.90;;;;;;4171912;28;20451;-78
2022/12/27 07:28:22;;;;;;;12.57;4.63;;;2.00;99.90;;;;;;4170105;28;21030;-79
2022/12/27 07:30:24;;;;;;;14.57;4.00;;;2.10;99.90;;;;;;4169438;28;20947;-78
2022/12/27 07:32:26;;;;;;;6.33;2.10;;;2.10;99.90;;;;;;4168052;28;20520;-78
2022/12/27 07:34:29;;;;;;;9.23;2.87;;;2.10;99.90;;;;;;4166406;28;20497;-79
2022/12/27 07:36:36;;;;;;;11.20;3.37;;;2.20;99.90;;;;;;4156520;28;20853;-79
2022/12/27 07:38:39;;;;;;;8.10;2.87;;;2.20;99.90;;;;;;4167644;28;20489;-80
2022/12/27 07:40:41;;;;;;;7.37;2.17;;;2.30;99.90;;;;;;4171744;28;20510;-79
2022/12/27 07:42:42;;;;;;;11.37;2.00;;;2.30;99.90;;;;;;4156252;28;20533;-79
2022/12/27 07:44:44;;;;;;;7.77;1.97;;;2.40;99.90;;;;;;4173496;28;20914;-78
2022/12/27 07:46:46;;;;;;;8.53;2.70;;;2.40;99.90;;;;;;4167377;28;20481;-78
2022/12/27 07:48:48;;;;;;;9.47;1.90;;;2.40;99.90;;;;;;4176527;28;20468;-79
2022/12/27 07:50:55;;;;;;;5.57;1.80;;;2.50;99.90;;;;;;4166476;28;20484;-77
2022/12/27 07:52:58;;;;;;;6.60;1.73;;;2.60;99.90;;;;;;4177728;28;20536;-79
2022/12/27 07:55:03;;;;;;;5.80;1.83;;;2.70;99.90;;;;;;4166159;28;20879;-78
2022/12/27 07:57:05;;;;;;;6.40;1.70;;;2.70;99.90;;;;;;4168828;28;20963;-78
2022/12/27 07:59:12;;;;;;;5.53;1.60;;;2.80;99.90;;;;;;4170411;28;20951;-80
2022/12/27 08:01:16;;;;;;;6.83;1.93;;;2.80;99.90;;;;;;4155590;28;20454;-78
2022/12/27 08:03:19;;;;;;;7.47;1.77;;;2.80;99.90;;;;;;4166059;28;20445;-78
2022/12/27 08:05:21;;;;;;;4.40;1.90;;;2.80;99.90;;;;;;4149665;28;20532;-79
2022/12/27 08:07:24;;;;;;;5.17;1.70;;;2.80;99.90;;;;;;4168701;28;20899;-78
2022/12/27 08:09:32;;;;;;;4.73;2.13;;;2.80;99.90;;;;;;4170849;28;20514;-78
2022/12/27 08:11:33;;;;;;;5.07;2.20;;;2.80;99.90;;;;;;4166477;28;20493;-78
2022/12/27 08:13:36;;;;;;;4.93;2.20;;;2.80;99.90;;;;;;4168944;28;20478;-77
2022/12/27 08:15:41;;;;;;;5.37;1.80;;;2.80;99.90;;;;;;4165700;28;20480;-78
2022/12/27 08:17:43;;;;;;;10.97;1.80;;;2.90;99.90;;;;;;4171843;28;20507;-77
2022/12/27 08:19:45;;;;;;;5.53;1.77;;;2.90;99.90;;;;;;4178432;28;20452;-78
2022/12/27 08:21:49;;;;;;;4.37;2.10;;;2.90;99.90;;;;;;4179676;28;20461;-78
2022/12/27 08:23:51;;;;;;;5.63;1.70;;;2.90;99.90;;;;;;4177876;28;20985;-77
2022/12/27 08:25:54;;;;;;;4.97;2.40;;;2.90;99.90;;;;;;4180413;28;20473;-78
2022/12/27 08:28:03;;;;;;;9.03;2.47;;;2.90;99.90;;;;;;4177468;28;20486;-78
2022/12/27 08:30:07;;;;;;;5.80;1.87;;;2.90;99.90;;;;;;4168780;28;20459;-78
2022/12/27 08:32:09;;;;;;;6.93;2.10;;;2.90;99.90;;;;;;4161606;28;20536;-78
2022/12/27 08:34:11;;;;;;;11.87;2.30;;;3.00;99.90;;;;;;4158682;28;20454;-78
2022/12/27 08:36:13;;;;;;;4.57;2.20;;;3.00;99.90;;;;;;4154719;28;20450;-76
2022/12/27 08:38:15;;;;;;;7.40;2.17;;;3.00;99.90;;;;;;4167580;28;20516;-77
2022/12/27 08:40:17;;;;;;;6.17;1.60;;;3.10;99.90;;;;;;4174741;28;20453;-78
2022/12/27 08:42:21;;;;;;;7.47;2.10;;;3.10;99.90;;;;;;4158283;28;20450;-78
2022/12/27 08:44:23;;;;;;;8.77;2.60;;;3.10;99.90;;;;;;4174760;28;20453;-78
2022/12/27 08:46:25;;;;;;;4.77;2.20;;;3.10;99.90;;;;;;4172778;28;20456;-78
2022/12/27 08:48:27;;;;;;;7.50;2.20;;;3.30;99.90;;;;;;4154265;28;20479;-77
2022/12/27 08:50:30;;;;;;;6.77;2.30;;;3.20;99.90;;;;;;4154147;28;20504;-77
2022/12/27 08:52:32;;;;;;;3.97;1.80;;;3.20;99.90;;;;;;4158013;28;20445;-77
2022/12/27 08:54:36;;;;;;;4.83;2.20;;;3.30;99.90;;;;;;4173672;28;20470;-78
2022/12/27 08:56:38;;;;;;;3.30;1.37;;;3.20;99.90;;;;;;4171751;28;21154;-78
2022/12/27 08:58:41;;;;;;;7.83;1.83;;;3.30;99.90;;;;;;4175654;28;20491;-78
2022/12/27 09:00:43;;;;;;;6.87;2.20;;;3.30;99.90;;;;;;4171610;28;21390;-76
2022/12/27 09:02:45;;;;;;;4.77;1.80;;;3.30;99.90;;;;;;4169998;28;20963;-77
2022/12/27 09:04:48;;;;;;;7.50;1.70;;;3.40;99.90;;;;;;4169690;28;20453;-77
2022/12/27 09:06:50;;;;;;;5.63;2.37;;;3.40;99.90;;;;;;4170123;28;20454;-77
2022/12/27 09:08:53;;;;;;;5.37;2.00;;;3.50;99.90;;;;;;4152893;28;21206;-76
2022/12/27 09:10:55;;;;;;;7.67;2.00;;;3.50;99.90;;;;;;4166557;28;20541;-77
2022/12/27 09:12:57;;;;;;;4.90;1.87;;;3.50;99.90;;;;;;4172160;28;21019;-78
2022/12/27 09:15:06;;;;;;;3.17;1.60;;;3.60;99.90;;;;;;4178892;28;20460;-77
2022/12/27 09:17:09;;;;;;;5.03;1.60;;;3.70;99.90;;;;;;4177230;28;20476;-78
2022/12/27 09:19:14;;;;;;;6.53;1.83;;;3.70;99.90;;;;;;4166195;28;20489;-77
2022/12/27 09:21:18;;;;;;;5.43;1.97;;;3.70;99.90;;;;;;4186966;28;20445;-77
2022/12/27 09:23:20;;;;;;;6.23;2.13;;;3.70;99.90;;;;;;4182891;28;20892;-79
2022/12/27 09:25:22;;;;;;;6.83;1.60;;;3.70;99.90;;;;;;4175462;28;20458;-79
2022/12/27 09:27:24;;;;;;;3.57;1.53;;;3.80;99.90;;;;;;4176607;28;20917;-79
2022/12/27 09:29:26;;;;;;;5.60;1.80;;;3.80;99.90;;;;;;4175915;28;20447;-79
2022/12/27 09:31:30;;;;;;;4.43;1.53;;;3.90;99.90;;;;;;4161774;28;20591;-78
2022/12/27 09:33:34;;;;;;;6.07;2.10;;;3.90;99.90;;;;;;4176986;28;20458;-78
2022/12/27 09:35:36;;;;;;;7.67;2.13;;;3.90;99.90;;;;;;4156482;28;20446;-77
2022/12/27 09:37:39;;;;;;;4.87;1.50;;;3.90;99.90;;;;;;4163895;28;20516;-77
2022/12/27 09:39:41;;;;;;;9.87;1.50;;;4.00;99.90;;;;;;4174793;28;20493;-77
2022/12/27 09:44:27;;;;;;;8.43;2.10;;;4.10;99.90;;;;;;4168232;28;20470;-77
2022/12/27 09:46:39;;;;;;;4.93;1.33;;;4.10;99.90;;;;;;4165473;28;20458;-78
2022/12/27 09:48:41;;;;;;;5.47;1.50;;;4.20;99.90;;;;;;4187215;28;20476;-77
2022/12/27 09:50:49;;;;;;;7.80;1.80;;;4.30;99.90;;;;;;4184951;28;20515;-77
2022/12/27 09:52:59;;;;;;;5.30;1.90;;;4.30;99.90;;;;;;4188666;28;20441;-78
2022/12/27 09:55:05;;;;;;;5.60;2.07;;;4.40;99.90;;;;;;4188600;28;20449;-77
2022/12/27 09:57:17;;;;;;;7.10;1.90;;;4.30;99.90;;;;;;4176665;28;20488;-79
2022/12/27 09:59:27;;;;;;;8.37;2.10;;;4.30;99.90;;;;;;4182727;28;20476;-78
2022/12/27 10:01:34;;;;;;;4.93;1.90;;;4.50;99.90;;;;;;4184487;28;20445;-78
2022/12/27 10:03:36;;;;;;;8.20;2.00;;;4.50;99.90;;;;;;4170692;28;20841;-80
2022/12/27 10:05:39;;;;;;;5.00;1.67;;;4.50;99.90;;;;;;4181802;28;20461;-76
2022/12/27 10:07:51;;;;;;;3.07;1.40;;;4.50;99.90;;;;;;4170469;28;20469;-78
2022/12/27 10:10:00;;;;;;;9.03;1.97;;;4.60;99.90;;;;;;4185252;28;20434;-79
2022/12/27 10:12:12;;;;;;;15.83;2.27;;;4.70;99.90;;;;;;4161952;28;20446;-78
2022/12/27 10:14:28;;;;;;;8.10;1.80;;;4.70;99.90;;;;;;4182342;28;20454;-77
2022/12/27 10:16:40;;;;;;;6.40;1.87;;;4.80;99.90;;;;;;4185135;28;20453;-78
2022/12/27 10:18:50;;;;;;;5.97;1.50;;;4.80;99.90;;;;;;4165857;28;20463;-78
2022/12/27 10:21:00;;;;;;;3.77;1.30;;;4.80;99.90;;;;;;4186060;28;20500;-78
2022/12/27 10:23:06;;;;;;;6.97;1.70;;;4.90;99.90;;;;;;4180397;28;20456;-78
2022/12/27 10:25:12;;;;;;;6.07;1.50;;;5.00;99.90;;;;;;4174516;28;20502;-78
2022/12/27 10:27:17;;;;;;;3.13;1.57;;;5.00;99.90;;;;;;4174374;28;20458;-79
2022/12/27 10:29:22;;;;;;;7.07;1.20;;;4.90;99.90;;;;;;4171433;28;20579;-79
2022/12/27 10:31:25;;;;;;;4.20;1.53;;;4.90;99.90;;;;;;4169474;28;20469;-80
2022/12/27 10:33:34;;;;;;;4.50;1.40;;;4.90;99.90;;;;;;4174512;28;20509;-80
2022/12/27 10:35:37;;;;;;;8.47;1.60;;;4.90;99.90;;;;;;4160404;28;20450;-78
2022/12/27 10:37:39;;;;;;;4.27;1.47;;;4.90;99.90;;;;;;4181981;28;20454;-80
2022/12/27 10:39:42;;;;;;;4.73;1.50;;;5.00;99.90;;;;;;4159997;28;20887;-79
2022/12/27 10:41:55;;;;;;;9.63;1.60;;;4.90;99.90;;;;;;4158175;28;20545;-79
2022/12/27 10:43:58;;;;;;;4.67;1.60;;;5.10;99.90;;;;;;4169084;28;20454;-79
2022/12/27 10:46:12;;;;;;;5.37;1.60;;;4.90;99.90;;;;;;4174713;28;20457;-80
2022/12/27 10:48:17;;;;;;;4.00;1.57;;;5.00;99.90;;;;;;4167498;28;20486;-79
2022/12/27 10:50:23;;;;;;;5.83;1.60;;;5.00;99.90;;;;;;4166325;28;20461;-79
2022/12/27 10:52:25;;;;;;;2.67;1.30;;;5.10;99.90;;;;;;4176953;28;20537;-79
2022/12/27 10:54:29;;;;;;;8.60;1.77;;;5.10;99.90;;;;;;4174662;28;20486;-79
2022/12/27 10:56:34;;;;;;;5.93;1.80;;;5.10;99.90;;;;;;4162967;28;20949;-79
2022/12/27 10:58:40;;;;;;;6.00;1.50;;;5.20;99.90;;;;;;4157444;28;20570;-79
2022/12/27 11:00:53;;;;;;;5.17;1.37;;;5.20;99.90;;;;;;4162864;28;20468;-79
2022/12/27 11:02:57;;;;;;;3.17;1.47;;;5.30;99.90;;;;;;4176125;28;20585;-79
2022/12/27 11:05:00;;;;;;;2.77;1.30;;;5.10;99.90;;;;;;4174048;28;20462;-78
2022/12/27 11:07:17;;;;;;;3.50;1.40;;;5.30;99.90;;;;;;4161639;28;20463;-79
2022/12/27 11:09:29;;;;;;;7.87;2.00;;;5.60;99.90;;;;;;4177965;28;20470;-79
2022/12/27 11:11:31;;;;;;;4.83;1.40;;;5.50;99.90;;;;;;4161073;28;20457;-79
2022/12/27 11:13:33;;;;;;;7.60;1.50;;;5.60;99.90;;;;;;4162281;28;20978;-79
2022/12/27 11:15:37;;;;;;;3.60;1.43;;;5.60;99.90;;;;;;4183709;28;20509;-79
2022/12/27 11:17:44;;;;;;;6.00;1.70;;;5.70;99.90;;;;;;4158381;28;20470;-80
2022/12/27 11:19:47;;;;;;;4.77;1.30;;;5.60;99.90;;;;;;4166447;28;20507;-83
2022/12/27 11:21:50;;;;;;;5.20;1.37;;;5.70;99.90;;;;;;4161102;28;20469;-80
2022/12/27 11:23:56;;;;;;;8.37;1.87;;;5.70;99.90;;;;;;4157351;28;21036;-81
2022/12/27 11:26:01;;;;;;;4.93;1.40;;;5.80;99.90;;;;;;4179314;28;20454;-83
2022/12/27 11:28:06;;;;;;;6.20;1.70;;;5.70;99.90;;;;;;4176542;28;20486;-79
2022/12/27 11:30:22;;;;;;;5.43;1.50;;;5.70;99.90;;;;;;4166879;28;20438;-79
2022/12/27 11:32:25;;;;;;;7.93;1.40;;;5.70;99.90;;;;;;4159506;28;20571;-79
2022/12/27 11:34:31;;;;;;;6.23;1.43;;;5.80;99.90;;;;;;4155480;28;20571;-80
2022/12/27 11:36:37;;;;;;;4.27;1.23;;;5.90;99.90;;;;;;4168000;28;20946;-82
2022/12/27 11:38:42;;;;;;;6.97;2.20;;;5.90;99.90;;;;;;4169445;28;20481;-81
2022/12/27 11:40:58;;;;;;;4.77;1.43;;;5.90;99.90;;;;;;4174697;28;21508;-81
2022/12/27 11:43:10;;;;;;;7.93;1.73;;;6.00;99.90;;;;;;4178048;28;20453;-81
2022/12/27 11:45:20;;;;;;;6.17;1.63;;;6.00;99.90;;;;;;4173092;28;20464;-79
2022/12/27 11:47:30;;;;;;;5.10;1.53;;;6.10;99.90;;;;;;4174075;28;20446;-81
2022/12/27 11:49:36;;;;;;;5.97;1.50;;;6.10;99.90;;;;;;4160527;28;20977;-81
2022/12/27 11:51:51;;;;;;;5.13;1.57;;;6.10;99.90;;;;;;4167469;28;20533;-81
2022/12/27 11:54:17;;;;;;;4.20;1.30;;;6.10;99.90;;;;;;4172352;28;20482;-80
2022/12/27 11:56:24;;;;;;;6.37;1.40;;;6.10;99.90;;;;;;4178821;28;20511;-81
2022/12/27 11:58:38;;;;;;;6.80;1.27;;;6.20;99.90;;;;;;4159509;28;20492;-81
2022/12/27 12:00:46;;;;;;;7.10;1.70;;;6.20;99.90;;;;;;4168528;28;21051;-81
2022/12/27 12:03:08;;;;;;;4.90;1.50;;;6.20;99.90;;;;;;4162460;28;20462;-81
2022/12/27 12:05:42;;;;;;;3.00;1.37;;;6.40;99.90;;;;;;4177812;28;20452;-80
2022/12/27 12:08:00;;;;;;;5.23;1.50;;;6.50;99.90;;;;;;4168864;28;20862;-82
2022/12/27 12:10:15;;;;;;;5.43;1.47;;;6.60;99.90;;;;;;4177369;28;20514;-81
2022/12/27 12:12:57;;;;;;;4.00;1.50;;;6.70;99.90;;;;;;4167492;28;20467;-81
2022/12/27 12:15:18;;;;;;;5.40;1.10;;;6.90;99.90;;;;;;4170121;28;21005;-82
2022/12/27 12:17:36;;;;;;;6.07;1.40;;;7.00;99.90;;;;;;4171226;28;20937;-82
2022/12/27 12:19:54;;;;;;;3.67;1.40;;;6.90;99.90;;;;;;4159789;28;20481;-81
2022/12/27 12:22:09;;;;;;;5.07;1.43;;;7.00;99.90;;;;;;4171587;28;20512;-81
2022/12/27 12:24:36;;;;;;;4.93;1.27;;;7.00;99.90;;;;;;4179240;28;20459;-81
2022/12/27 12:26:47;;;;;;;5.93;1.47;;;7.00;99.90;;;;;;4176518;28;20460;-82
2022/12/27 12:29:24;;;;;;;6.57;1.37;;;7.10;99.90;;;;;;4158620;28;20492;-82
2022/12/27 12:31:44;;;;;;;3.40;1.20;;;7.10;99.90;;;;;;4179690;28;20451;-82
2022/12/27 12:34:15;;;;;;;5.17;1.10;;;7.20;99.90;;;;;;4159703;28;20481;-83
2022/12/27 12:36:42;;;;;;;7.10;1.33;;;7.30;99.90;;;;;;4176171;28;20480;-82
2022/12/27 12:38:50;;;;;;;4.07;1.17;;;7.50;99.90;;;;;;4172314;28;21048;-82
2022/12/27 12:41:43;;;;;;;2.43;1.00;;;7.80;99.90;;;;;;4177142;28;20503;-82
2022/12/27 12:44:18;;;;;;;3.93;0.83;;;7.80;99.90;;;;;;4173116;28;20457;-81
2022/12/27 12:46:27;;;;;;;3.97;1.33;;;7.90;99.90;;;;;;4158572;28;20857;-82
2022/12/27 12:48:53;;;;;;;4.57;1.10;;;8.10;99.90;;;;;;4158611;28;21025;-82
2022/12/27 12:51:11;;;;;;;5.00;1.40;;;8.00;99.90;;;;;;4162493;28;20801;-82